This is the latest recevied weather packets stored in our database for station/object K9YK-13. If no packets are shown the sender has not sent any weather packets the latest 10 day(s).
| Time | Temp. | Humidity | Pressure | Rain* | Wind** | Luminosity | Snow |
|---|---|---|---|---|---|---|---|
| 1777681272 | 10° C | 72% | 0 hPa | 0 mm | - | - | - |
| 1777680972 | 10.56° C | 69% | 0 hPa | 0 mm | - | - | - |
| 1777680672 | 10.56° C | 70% | 0 hPa | 0 mm | - | - | - |
| 1777680372 | 9.44° C | 72% | 0 hPa | 0 mm | - | - | - |
| 1777680072 | 11.67° C | 71% | 0 hPa | 0 mm | - | - | - |
| 1777679772 | 12.78° C | 66% | 0 hPa | 0 mm | - | - | - |
| 1777679472 | 12.22° C | 64% | 0 hPa | 0 mm | - | - | - |
| 1777679172 | 11.67° C | 64% | 0 hPa | 0 mm | - | - | - |
| 1777678872 | 12.22° C | 63% | 0 hPa | 0 mm | - | - | - |
| 1777678572 | 12.22° C | 64% | 0 hPa | 0 mm | - | - | - |
| 1777678272 | 12.78° C | 63% | 0 hPa | 0 mm | - | - | - |
| 1777677972 | 12.78° C | 62% | 0 hPa | 0 mm | - | - | - |
| 1777677672 | 12.22° C | 64% | 0 hPa | 0 mm | - | - | - |
| 1777677372 | 12.22° C | 66% | 0 hPa | 0 mm | - | - | - |
| 1777677072 | 11.67° C | 67% | 0 hPa | 0 mm | - | - | - |
| 1777676772 | 11.67° C | 67% | 0 hPa | 0 mm | - | - | - |
| 1777676472 | 12.22° C | 64% | 0 hPa | 0 mm | - | - | - |
| 1777676172 | 11.67° C | 64% | 0 hPa | 0 mm | - | - | - |
| 1777675872 | 12.78° C | 62% | 0 hPa | 0 mm | - | - | - |
| 1777675572 | 12.22° C | 63% | 0 hPa | 0 mm | - | - | - |
| 1777675272 | 12.78° C | 60% | 0 hPa | 0 mm | - | - | - |
| 1777674972 | 12.22° C | 60% | 0 hPa | 0 mm | - | - | - |
| 1777674672 | 12.22° C | 58% | 0 hPa | 0 mm | - | - | - |
| 1777674386 | 13.33° C | 56% | 0 hPa | 0 mm | - | - | - |
| 1777674073 | 13.33° C | 56% | 0 hPa | 0 mm | - | - | - |
* Rain latest hour (hover to see other rain measurements)
** Current wind speed in m/s (hover to see current wind gust speed)